Dades de l'estació automàtica Salòria (2.451 m)
Resum diari
21:30 TU| Temperatura mitjana | 1.0 °C | |
|---|---|---|
| Temperatura màxima | 2.9 °C | 11:15 TU |
| Temperatura mínima | -0.6 °C | 21:42 TU |
| Humitat relativa mitjana | 100% | |
| Precipitació acumulada | 17.3 mm | |
| Gruix de neu màxim | 6 cm | |
| Ratxa màxima del vent (10 m) | 32.8 km/h - 175º | 14:04 TU |
| Irradiació solar global | 7.4 MJ/m2 | |
El tram horari està expressat en Temps Universal (TU). Cal sumar una hora en horari d'hivern i dues en horari d'estiu per passar a l'hora oficial.
Salòria (2.451 m)
| Municipi | Alins |
|---|---|
| Comarca | Pallars Sobirà |
| Altitud | 2451 m |
| Data alta | 30.09.2004 |
| Estat actual | Operativa |
| Període TU |
TM °C |
TX °C |
TN °C |
HRM % |
PPT mm |
GN cm |
VVM (10 m) km/h |
DVM (10 m) graus |
VVX (10 m) km/h |
RS W/m2 |
|---|---|---|---|---|---|---|---|---|---|---|
| 00:00 - 00:30 | 1.2 | 1.3 | 1.1 | 100 | 0.0 | 0 | 12.2 | 165 | 29.2 | 0 |
| 00:30 - 01:00 | 1.1 | 1.2 | 1.1 | 100 | 0.0 | 0 | 11.5 | 161 | 26.3 | 0 |
| 01:00 - 01:30 | 1.2 | 1.2 | 1.2 | 100 | 0.0 | 0 | 9.4 | 167 | 22.0 | 0 |
| 01:30 - 02:00 | 1.3 | 1.3 | 1.2 | 100 | 0.0 | 0 | 8.6 | 156 | 19.8 | 0 |
| 02:00 - 02:30 | 1.2 | 1.3 | 1.1 | 100 | 0.0 | 0 | 9.4 | 145 | 25.2 | 0 |
| 02:30 - 03:00 | 1.1 | 1.2 | 1.0 | 100 | 0.0 | 0 | 9.0 | 169 | 20.5 | 0 |
| 03:00 - 03:30 | 1.1 | 1.2 | 1.0 | 100 | 0.0 | 0 | 10.4 | 160 | 21.6 | 0 |
| 03:30 - 04:00 | 1.1 | 1.1 | 1.0 | 100 | 0.0 | 0 | 10.1 | 160 | 20.5 | 0 |
| 04:00 - 04:30 | 1.1 | 1.2 | 1.1 | 100 | 0.0 | 0 | 11.2 | 170 | 19.1 | 0 |
| 04:30 - 05:00 | 1.1 | 1.2 | 0.9 | 100 | 0.0 | 0 | 5.4 | 182 | 15.8 | 1 |
| 05:00 - 05:30 | 0.4 | 1.0 | 0.2 | 100 | 0.6 | 0 | 6.1 | 177 | 12.6 | 8 |
| 05:30 - 06:00 | 0.0 | 0.2 | -0.1 | 100 | 0.8 | 1 | 5.4 | 150 | 7.6 | 36 |
| 06:00 - 06:30 | -0.1 | -0.1 | -0.1 | 100 | 0.8 | 1 | 6.8 | 155 | 17.6 | 40 |
| 06:30 - 07:00 | 0.1 | 0.4 | 0.0 | 100 | 0.8 | 2 | 11.5 | 149 | 20.5 | 127 |
| 07:00 - 07:30 | 0.6 | 0.9 | 0.4 | 100 | 0.0 | 2 | 9.4 | 151 | 21.2 | 236 |
| 07:30 - 08:00 | 0.9 | 1.1 | 0.7 | 100 | 0.0 | 2 | 7.6 | 147 | 21.2 | 201 |
| 08:00 - 08:30 | 1.3 | 1.5 | 1.1 | 100 | 0.0 | 2 | 7.6 | 164 | 19.4 | 185 |
| 08:30 - 09:00 | 1.8 | 2.5 | 1.3 | 100 | 0.0 | 2 | 6.8 | 170 | 23.4 | 436 |
| 09:00 - 09:30 | 1.8 | 1.9 | 1.6 | 100 | 0.0 | 2 | 5.8 | 325 | 18.0 | 201 |
| 09:30 - 10:00 | 2.1 | 2.3 | 1.9 | 100 | 0.0 | 2 | 5.0 | 50 | 15.5 | 357 |
| 10:00 - 10:30 | 1.9 | 2.4 | 1.6 | 100 | 0.1 | 2 | 5.4 | 352 | 11.2 | 118 |
| 10:30 - 11:00 | 2.0 | 2.4 | 1.6 | 100 | 0.0 | 2 | 6.5 | 323 | 18.7 | 233 |
| 11:00 - 11:30 | 2.5 | 2.9 | 2.2 | 100 | 0.0 | 2 | 7.6 | 331 | 23.8 | 263 |
| 11:30 - 12:00 | 1.4 | 2.5 | 0.3 | 100 | 5.0 | 2 | 7.6 | 349 | 26.3 | 81 |
| 12:00 - 12:30 | 0.5 | 1.0 | 0.3 | 100 | 1.7 | 4 | 12.2 | 161 | 29.9 | 133 |
| 12:30 - 13:00 | 1.2 | 1.3 | 1.1 | 100 | 0.5 | 3 | 10.1 | 202 | 30.2 | 167 |
| 13:00 - 13:30 | 1.1 | 1.4 | 1.0 | 100 | 0.1 | 3 | 14.4 | 161 | 29.2 | 230 |
| 13:30 - 14:00 | 1.7 | 1.9 | 1.5 | 100 | 0.0 | 3 | 13.3 | 171 | 31.0 | 246 |
| 14:00 - 14:30 | 1.3 | 1.6 | 0.7 | 100 | 0.6 | 4 | 10.4 | 195 | 32.8 | 61 |
| 14:30 - 15:00 | 0.6 | 0.7 | 0.4 | 100 | 1.0 | 3 | 9.7 | 171 | 18.4 | 143 |
| 15:00 - 15:30 | 1.4 | 1.6 | 0.8 | 100 | 0.0 | 4 | 7.2 | 165 | 19.1 | 295 |
| 15:30 - 16:00 | 1.5 | 1.7 | 1.4 | 100 | 0.0 | 3 | 4.3 | 161 | 16.2 | 115 |
| 16:00 - 16:30 | 1.4 | 1.6 | 1.4 | 100 | 0.0 | 1 | 6.8 | 160 | 17.3 | 29 |
| 16:30 - 17:00 | 1.2 | 1.5 | 0.4 | 100 | 1.6 | 2 | 5.0 | 285 | 16.9 | 14 |
| 17:00 - 17:30 | 0.7 | 0.9 | 0.3 | 100 | 0.7 | 4 | 11.2 | 238 | 24.1 | 101 |
| 17:30 - 18:00 | 0.9 | 1.1 | 0.8 | 100 | 0.0 | 2 | 9.4 | 229 | 25.6 | 49 |
| 18:00 - 18:30 | 1.0 | 1.2 | 0.8 | 100 | 0.0 | 3 | 5.0 | 235 | 15.1 | 15 |
| 18:30 - 19:00 | 1.0 | 1.2 | 0.6 | 100 | 0.5 | 3 | 9.0 | 163 | 20.2 | 0 |
| 19:00 - 19:30 | 0.3 | 0.6 | 0.0 | 100 | 0.9 | 5 | 6.8 | 207 | 16.6 | 0 |
| 19:30 - 20:00 | 0.0 | 0.0 | -0.1 | 100 | 0.9 | 6 | 11.5 | 160 | 22.3 | 0 |
| 20:00 - 20:30 | 0.0 | 0.0 | -0.1 | 100 | 0.7 | 4 | 10.1 | 153 | 26.6 | 0 |
| 20:30 - 21:00 | -0.3 | -0.1 | -0.5 | 100 | 0.0 | 5 | 9.7 | 287 | 25.6 | 0 |
| 21:00 - 21:30 | -0.3 | -0.1 | -0.5 | 100 | 0.0 | 6 | 6.5 | 323 | 21.2 | 0 |
| 21:30 - 22:00 | -0.5 | -0.3 | -0.6 | 100 | 0.0 | 6 | 0.0 | 0 | 0.0 | 0 |
| 22:00 - 22:30 | (s/d) | (s/d) | (s/d) | (s/d) | (s/d) | (s/d) | (s/d) | (s/d) | (s/d) | (s/d) |
Les dades en taronja només han passat un control de qualitat automàtic. Resta pendent la seva validació definitiva.